Time;durP1;ratioP1;P1;durP2;ratioP2;P2;SDS_P1;SDS_P2;PMS_P1;PMS_P2;Temp;Humidity;BMP_temperature;BMP_pressure;BME280_temperature;BME280_humidity;BME280_pressure;Samples;Min_cycle;Max_cycle;Signal;HPM_P1;HPM_P2
2023/04/16 00:04:13;;;;;;;33.70;22.00;;;;;;;10.54;100.00;100505.14;5158834;55;1145384;-77
2023/04/16 00:09:19;;;;;;;41.80;25.73;;;;;;;10.54;100.00;100510.94;5182314;55;1151144;-78
2023/04/16 00:14:24;;;;;;;17.00;11.93;;;;;;;10.47;100.00;100503.94;5182193;55;1145144;-78
2023/04/16 00:19:30;;;;;;;18.70;13.50;;;;;;;10.49;100.00;100514.41;5202600;55;1145294;-79
2023/04/16 00:24:36;;;;;;;14.07;9.93;;;;;;;10.49;100.00;100521.02;5182572;55;1145155;-79
2023/04/16 00:29:41;;;;;;;13.53;11.77;;;;;;;10.47;100.00;100520.28;5182474;55;1143097;-78
2023/04/16 00:34:47;;;;;;;48.57;30.37;;;;;;;10.42;100.00;100527.72;5202869;55;1145202;-77
2023/04/16 00:39:52;;;;;;;21.73;15.20;;;;;;;10.35;100.00;100518.59;5182000;55;1145256;-76
2023/04/16 00:44:58;;;;;;;14.90;11.97;;;;;;;10.37;100.00;100521.97;5138681;55;1145226;-76
2023/04/16 00:50:06;;;;;;;72.67;41.60;;;;;;;10.37;100.00;100533.38;5085538;56;1145053;-77
2023/04/16 00:55:12;;;;;;;18.57;11.78;;;;;;;10.36;100.00;100534.82;4993486;55;1145458;-78
2023/04/16 01:00:20;;;;;;;18.57;12.73;;;;;;;10.38;100.00;100531.58;4983840;57;1145216;-76
2023/04/16 01:05:26;;;;;;;11.57;9.33;;;;;;;10.37;100.00;100537.34;4964722;57;1145142;-77
2023/04/16 01:10:31;;;;;;;9.83;8.60;;;;;;;10.38;100.00;100544.32;5066030;56;1143205;-78
2023/04/16 01:15:37;;;;;;;12.50;9.70;;;;;;;10.42;100.00;100540.46;4927148;58;1141079;-77
2023/04/16 01:20:43;;;;;;;13.33;10.07;;;;;;;10.48;100.00;100541.33;5086040;56;1143222;-78
2023/04/16 01:25:49;;;;;;;12.53;10.17;;;;;;;10.46;100.00;100545.89;5065848;56;1145192;-77
2023/04/16 01:30:54;;;;;;;14.43;9.40;;;;;;;10.42;100.00;100546.23;4926800;58;1145221;-77
2023/04/16 01:36:08;;;;;;;9.30;7.60;;;;;;;10.41;100.00;100544.06;5052258;56;1143149;-76
2023/04/16 01:41:13;;;;;;;11.33;8.10;;;;;;;10.38;100.00;100538.19;5086541;56;1141143;-78
2023/04/16 01:46:27;;;;;;;9.53;7.63;;;;;;;10.35;100.00;100545.03;4882297;58;1142989;-76
2023/04/16 01:51:31;;;;;;;;;;;;;;;10.35;100.00;100542.39;4990546;57;1140907;-77
2023/04/16 01:56:37;;;;;;;11.03;9.47;;;;;;;10.31;100.00;100544.41;5048907;57;978168;-77
2023/04/16 02:01:43;;;;;;;9.37;8.33;;;;;;;10.27;100.00;100546.07;5012869;57;1140961;-79
2023/04/16 02:06:49;;;;;;;10.33;7.80;;;;;;;10.23;100.00;100548.13;4904093;58;1141173;-76
2023/04/16 02:11:54;;;;;;;15.00;8.20;;;;;;;10.18;100.00;100547.59;4880190;58;1143192;-78
2023/04/16 02:17:00;;;;;;;9.50;7.60;;;;;;;10.18;100.00;100550.23;4871927;58;1143222;-77
2023/04/16 02:22:22;;;;;;;11.68;10.53;;;;;;;10.11;100.00;100556.92;4892238;58;1141047;-78
2023/04/16 02:27:29;;;;;;;15.83;11.63;;;;;;;10.12;100.00;100555.97;4920975;58;1145425;-77
2023/04/16 02:32:36;;;;;;;12.07;9.97;;;;;;;10.12;100.00;100555.49;4940196;57;1145356;-74
2023/04/16 02:37:43;;;;;;;12.87;10.30;;;;;;;10.11;100.00;100557.77;4926387;57;1143110;-77
2023/04/16 02:42:48;;;;;;;11.10;10.00;;;;;;;10.06;100.00;100557.30;4913726;57;1145211;-79
2023/04/16 02:47:54;;;;;;;17.90;13.10;;;;;;;10.05;100.00;100564.86;4936605;57;1145214;-77
2023/04/16 02:53:00;;;;;;;20.07;13.57;;;;;;;9.95;100.00;100559.87;5029514;55;1145028;-78
2023/04/16 02:58:05;;;;;;;20.30;13.77;;;;;;;9.88;100.00;100558.66;4936843;56;1143114;-77
2023/04/16 03:03:11;;;;;;;16.57;12.30;;;;;;;9.85;100.00;100560.20;4961423;56;1143096;-77
2023/04/16 03:08:17;;;;;;;19.07;13.47;;;;;;;9.82;100.00;100561.26;5026373;55;1143098;-77
2023/04/16 03:13:23;;;;;;;16.32;12.98;;;;;;;9.81;100.00;100565.33;4936842;56;1142936;-80
2023/04/16 03:18:29;;;;;;;26.60;14.37;;;;;;;9.82;100.00;100568.34;4937351;56;1142954;-76
2023/04/16 03:23:35;;;;;;;15.37;12.83;;;;;;;9.77;100.00;100570.50;4956783;57;1143122;-76
2023/04/16 03:28:42;;;;;;;15.07;12.40;;;;;;;9.71;100.00;100570.45;4946278;57;1143063;-76
2023/04/16 03:33:47;;;;;;;12.00;10.40;;;;;;;9.69;100.00;100576.80;5011961;57;1143090;-78
2023/04/16 03:38:53;;;;;;;40.93;19.60;;;;;;;9.63;100.00;100577.23;5032430;56;1143037;-78
2023/04/16 03:44:00;;;;;;;34.13;22.37;;;;;;;9.61;100.00;100580.02;5002487;57;1143050;-78
2023/04/16 03:49:06;;;;;;;14.93;12.77;;;;;;;9.61;100.00;100585.30;5038596;56;1143367;-77
2023/04/16 03:54:12;;;;;;;20.87;18.20;;;;;;;9.61;100.00;100585.77;4957771;57;1142966;-76
2023/04/16 03:59:20;;;;;;;36.75;24.10;;;;;;;9.58;100.00;100596.55;4954496;56;1143203;-78
2023/04/16 04:04:26;;;;;;;31.23;19.35;;;;;;;9.53;100.00;100607.44;4983020;56;1143035;-77
2023/04/16 04:09:32;;;;;;;44.57;30.60;;;;;;;9.48;100.00;100611.72;5032181;56;1143078;-78
2023/04/16 04:14:38;;;;;;;27.53;20.17;;;;;;;9.50;100.00;100609.81;5092957;56;1142992;-76
2023/04/16 04:19:44;;;;;;;53.97;35.27;;;;;;;9.58;100.00;100617.67;5096045;56;1143023;-78
2023/04/16 04:24:50;;;;;;;35.23;26.03;;;;;;;9.60;100.00;100623.69;5006764;56;1142918;-79
2023/04/16 04:29:57;;;;;;;43.13;29.70;;;;;;;9.63;100.00;100620.80;5045550;56;1143123;-77
2023/04/16 04:35:04;;;;;;;22.07;16.67;;;;;;;9.64;100.00;100626.45;4999816;57;1143095;-76
2023/04/16 04:40:10;;;;;;;40.07;23.43;;;;;;;9.64;100.00;100633.05;5028809;54;1143023;-76
2023/04/16 04:45:16;;;;;;;27.93;17.00;;;;;;;9.65;100.00;100639.55;4963576;57;1143052;-77
2023/04/16 04:50:23;;;;;;;17.47;12.97;;;;;;;9.62;100.00;100634.99;5065243;56;1143029;-76
2023/04/16 04:55:28;;;;;;;19.12;14.87;;;;;;;9.64;100.00;100643.14;5012664;56;1143026;-78
2023/04/16 05:00:36;;;;;;;18.20;13.20;;;;;;;9.60;100.00;100644.81;5096723;56;1143157;-78
2023/04/16 05:05:42;;;;;;;29.87;17.15;;;;;;;9.55;100.00;100649.09;5114756;55;1143077;-78
2023/04/16 05:10:48;;;;;;;21.47;12.87;;;;;;;9.50;100.00;100654.70;5067218;56;1143030;-76
2023/04/16 05:15:53;;;;;;;26.67;15.57;;;;;;;9.51;100.00;100664.78;5066846;56;1143287;-77
2023/04/16 05:20:59;;;;;;;41.98;23.12;;;;;;;9.52;100.00;100665.15;5067427;56;1143172;-76
2023/04/16 05:26:05;;;;;;;24.23;15.10;;;;;;;9.58;100.00;100677.09;5086470;56;1143045;-78
2023/04/16 05:31:10;;;;;;;19.87;14.30;;;;;;;9.59;100.00;100673.02;4984338;57;1143438;-76
2023/04/16 05:36:16;;;;;;;16.97;13.33;;;;;;;9.54;100.00;100681.73;4984605;57;1143059;-77
2023/04/16 05:41:22;;;;;;;23.73;15.13;;;;;;;9.52;100.00;100683.63;5003787;57;1143095;-78
2023/04/16 05:46:28;;;;;;;16.23;11.35;;;;;;;9.51;100.00;100685.91;5042014;56;1143144;-77
2023/04/16 05:51:33;;;;;;;25.70;14.93;;;;;;;9.60;100.00;100689.70;5065747;56;1143089;-77
2023/04/16 05:56:39;;;;;;;63.60;30.57;;;;;;;9.63;100.00;100690.78;5152439;55;1143031;-77
2023/04/16 06:01:45;;;;;;;23.90;13.60;;;;;;;9.62;100.00;100697.05;5182235;55;1142984;-78
2023/04/16 06:06:50;;;;;;;47.17;26.57;;;;;;;9.63;100.00;100704.83;5182283;55;1142892;-77
2023/04/16 06:11:56;;;;;;;26.67;16.40;;;;;;;9.62;100.00;100703.17;5032185;56;1143151;-78
2023/04/16 06:17:02;;;;;;;19.27;13.47;;;;;;;9.61;100.00;100708.09;5051686;57;1143044;-79
2023/04/16 06:22:08;;;;;;;16.07;12.97;;;;;;;9.60;100.00;100717.44;5031500;57;1143103;-78
2023/04/16 06:27:14;;;;;;;19.83;14.77;;;;;;;9.60;100.00;100721.39;5116234;55;1143238;-78
2023/04/16 06:32:20;;;;;;;16.43;14.17;;;;;;;9.57;100.00;100725.09;5136489;56;1142883;-78
2023/04/16 06:37:25;;;;;;;77.20;34.73;;;;;;;9.56;100.00;100727.83;5031701;57;1143062;-78
2023/04/16 06:42:31;;;;;;;68.75;40.92;;;;;;;9.55;100.00;100734.06;5041360;55;1143202;-78
2023/04/16 06:47:37;;;;;;;165.57;87.15;;;;;;;9.64;100.00;100738.21;5036172;57;1143130;-78
2023/04/16 06:52:42;;;;;;;84.30;46.63;;;;;;;9.70;100.00;100736.95;5125911;55;1145168;-77
2023/04/16 06:57:49;;;;;;;59.03;32.93;;;;;;;9.75;100.00;100742.77;4988389;57;1142969;-80
2023/04/16 07:02:54;;;;;;;157.40;82.33;;;;;;;9.79;100.00;100744.21;4993466;57;1143206;-77
2023/04/16 07:08:00;;;;;;;25.90;19.60;;;;;;;9.81;100.00;100745.80;4949988;57;1145118;-77
2023/04/16 07:13:06;;;;;;;114.83;63.27;;;;;;;9.83;100.00;100750.50;4978835;57;1143306;-78
2023/04/16 07:18:11;;;;;;;208.50;116.40;;;;;;;9.82;100.00;100753.25;4898765;58;1145151;-76
2023/04/16 07:23:17;;;;;;;43.27;27.87;;;;;;;9.84;100.00;100760.11;4917698;58;1147272;-79
2023/04/16 07:28:24;;;;;;;29.72;21.70;;;;;;;9.82;100.00;100766.45;4899802;58;1143133;-79
2023/04/16 07:33:29;;;;;;;63.07;38.07;;;;;;;9.84;100.00;100768.04;4931193;57;1143221;-78
2023/04/16 07:38:35;;;;;;;83.92;48.85;;;;;;;9.91;100.00;100764.98;4926556;58;1143048;-79
2023/04/16 07:43:41;;;;;;;42.93;27.05;;;;;;;9.95;100.00;100765.95;4926832;58;1143339;-77
2023/04/16 07:48:47;;;;;;;73.20;44.57;;;;;;;10.03;100.00;100778.63;4992609;57;1143089;-76
2023/04/16 07:53:52;;;;;;;255.13;146.73;;;;;;;10.02;100.00;100779.11;4978907;57;1145334;-75
2023/04/16 07:58:58;;;;;;;38.40;26.47;;;;;;;10.03;100.00;100782.13;5023021;56;1149330;-76
2023/04/16 08:04:04;;;;;;;37.93;24.43;;;;;;;10.04;100.00;100785.13;5023532;57;1145285;-76
2023/04/16 08:09:10;;;;;;;23.10;17.17;;;;;;;10.10;100.00;100789.12;5133445;55;1145109;-77
2023/04/16 08:14:16;;;;;;;22.03;14.20;;;;;;;10.10;100.00;100787.80;5144747;55;1145146;-77
2023/04/16 08:19:22;;;;;;;21.93;15.23;;;;;;;10.12;100.00;100795.14;5118318;55;1145036;-78
2023/04/16 08:24:28;;;;;;;23.67;15.83;;;;;;;10.14;100.00;100803.34;5138520;55;1145129;-76
2023/04/16 08:29:34;;;;;;;18.57;16.67;;;;;;;10.20;100.00;100806.06;5008659;57;1145115;-75
2023/04/16 08:34:39;;;;;;;21.45;18.20;;;;;;;10.20;100.00;100809.55;4988052;57;1145076;-75
2023/04/16 08:39:45;;;;;;;26.47;19.00;;;;;;;10.21;100.00;100812.56;5001876;56;1145412;-77
2023/04/16 08:44:53;;;;;;;18.80;15.80;;;;;;;10.18;100.00;100815.86;5053960;56;1145024;-75
2023/04/16 08:50:01;;;;;;;26.10;19.13;;;;;;;10.14;100.00;100824.48;5030140;56;1145056;-74
2023/04/16 08:55:16;;;;;;;37.10;26.77;;;;;;;10.20;100.00;100828.53;5016252;57;1145178;-74
2023/04/16 09:00:22;;;;;;;26.33;19.80;;;;;;;10.20;100.00;100834.66;5171838;55;1145436;-76
2023/04/16 09:05:29;;;;;;;30.83;21.17;;;;;;;10.20;100.00;100839.95;5175045;55;1145396;-77
2023/04/16 09:10:35;;;;;;;39.23;25.07;;;;;;;10.18;100.00;100841.84;5182363;55;1145250;-74
2023/04/16 09:15:43;;;;;;;22.95;18.70;;;;;;;10.20;100.00;100844.39;5192802;55;1145198;-76
2023/04/16 09:20:51;;;;;;;32.03;18.70;;;;;;;10.16;100.00;100859.58;5182051;55;1145383;-74
2023/04/16 09:26:00;;;;;;;24.43;18.77;;;;;;;10.16;100.00;100857.41;5097989;55;1145492;-77
2023/04/16 09:31:12;;;;;;;31.10;23.05;;;;;;;10.18;100.00;100861.67;5032216;56;1145155;-76
2023/04/16 09:36:22;;;;;;;26.07;17.73;;;;;;;10.21;100.00;100865.91;5136364;56;1145168;-75
2023/04/16 09:41:31;;;;;;;27.60;17.53;;;;;;;10.19;100.00;100868.66;5032012;57;1145293;-75
2023/04/16 09:46:42;;;;;;;35.77;20.87;;;;;;;10.20;100.00;100865.06;5013262;57;1145237;-78
2023/04/16 09:51:53;;;;;;;63.50;34.40;;;;;;;10.23;100.00;100874.07;5147852;55;1145123;-77
2023/04/16 09:56:57;;;;;;;58.00;37.30;;;;;;;10.30;100.00;100875.81;4970897;57;1145089;-73
2023/04/16 10:02:03;;;;;;;55.85;30.37;;;;;;;10.37;100.00;100875.77;4953535;57;1145403;-77
2023/04/16 10:07:09;;;;;;;29.30;18.40;;;;;;;10.46;100.00;100874.25;5042327;57;1145020;-76
2023/04/16 10:12:15;;;;;;;28.70;18.73;;;;;;;10.47;100.00;100887.84;5013743;56;1145216;-75
2023/04/16 10:17:22;;;;;;;27.43;19.07;;;;;;;10.47;100.00;100883.40;4992899;57;1145290;-78
2023/04/16 10:22:28;;;;;;;20.70;15.80;;;;;;;10.53;100.00;100888.73;5127762;55;1153462;-75
2023/04/16 10:27:34;;;;;;;21.70;18.20;;;;;;;10.63;100.00;100884.95;5099117;55;1145018;-74
2023/04/16 10:32:40;;;;;;;22.57;16.70;;;;;;;10.79;100.00;100894.80;5096443;56;1145235;-76
2023/04/16 10:37:46;;;;;;;22.80;17.73;;;;;;;10.87;100.00;100890.62;5115989;56;1145583;-76
2023/04/16 10:43:00;;;;;;;20.13;17.23;;;;;;;10.98;100.00;100890.33;5095959;56;1145314;-77
2023/04/16 10:48:13;;;;;;;21.87;16.95;;;;;;;11.02;100.00;100893.09;4949871;57;1145398;-73
2023/04/16 10:53:27;;;;;;;19.47;13.87;;;;;;;11.08;100.00;100894.83;4998403;57;1145114;-75
2023/04/16 10:58:35;;;;;;;26.80;16.37;;;;;;;11.08;100.00;100896.15;5013479;57;1145028;-75
2023/04/16 11:03:50;;;;;;;18.70;14.87;;;;;;;11.03;100.00;100901.41;5031267;57;1145190;-77
2023/04/16 11:08:55;;;;;;;23.40;14.30;;;;;;;11.04;100.00;100905.75;5173822;55;1145396;-77
2023/04/16 11:14:01;;;;;;;32.50;17.17;;;;;;;11.05;100.00;100906.95;5120540;56;1145195;-78
2023/04/16 11:19:07;;;;;;;31.93;23.37;;;;;;;11.00;100.00;100910.41;4926681;57;1145067;-75
2023/04/16 11:24:13;;;;;;;45.90;29.20;;;;;;;10.99;100.00;100914.05;5031688;57;1145088;-74
2023/04/16 11:29:19;;;;;;;29.23;19.13;;;;;;;10.98;100.00;100921.61;5116345;56;1145182;-77
2023/04/16 11:34:25;;;;;;;22.27;16.63;;;;;;;10.99;100.00;100925.11;5073078;56;1145176;-78
2023/04/16 11:39:30;;;;;;;43.20;26.10;;;;;;;11.03;100.00;100921.26;5084399;56;1145170;-77
2023/04/16 11:44:36;;;;;;;24.82;18.70;;;;;;;11.11;100.00;100926.38;5074302;56;1145209;-76
2023/04/16 11:49:42;;;;;;;21.30;16.65;;;;;;;11.12;100.00;100928.06;5031862;57;1145289;-74
2023/04/16 11:54:51;;;;;;;18.13;13.30;;;;;;;11.09;100.00;100935.37;5101709;56;1145468;-78
2023/04/16 11:59:58;;;;;;;20.07;13.27;;;;;;;11.07;100.00;100931.52;5116285;56;1145414;-80
2023/04/16 12:05:27;;;;;;;17.27;12.93;;;;;;;11.09;100.00;100938.02;4997604;57;1145077;-80
2023/04/16 12:10:36;;;;;;;19.60;14.23;;;;;;;11.12;100.00;100937.33;5040146;56;1145216;-78
2023/04/16 12:15:54;;;;;;;21.02;16.07;;;;;;;11.12;100.00;100935.16;5004139;57;1145217;-78
2023/04/16 12:21:03;;;;;;;41.90;23.98;;;;;;;11.07;100.00;100933.32;5141618;55;1145229;-75
2023/04/16 12:26:11;;;;;;;32.40;20.60;;;;;;;11.01;100.00;100941.70;5034511;57;1145329;-74
2023/04/16 12:31:17;;;;;;;30.57;19.33;;;;;;;10.99;100.00;100943.63;5017012;57;1145171;-77
2023/04/16 12:36:23;;;;;;;45.73;24.67;;;;;;;10.98;100.00;100944.59;4979627;57;1145212;-79
2023/04/16 12:41:29;;;;;;;96.30;51.23;;;;;;;11.00;100.00;100945.33;5136923;55;1145171;-79
2023/04/16 12:46:36;;;;;;;103.65;49.40;;;;;;;11.03;100.00;100943.28;4988050;57;1145262;-76
2023/04/16 12:51:42;;;;;;;40.73;25.62;;;;;;;11.10;100.00;100941.89;4976925;57;1147267;-78
2023/04/16 12:56:47;;;;;;;43.57;25.37;;;;;;;11.07;100.00;100941.26;5032485;57;1145263;-79
2023/04/16 13:01:53;;;;;;;43.33;27.87;;;;;;;11.01;100.00;100945.66;5001602;57;1145267;-75
2023/04/16 13:06:59;;;;;;;43.50;26.02;;;;;;;10.95;100.00;100948.77;5109416;55;1145034;-76
2023/04/16 13:12:05;;;;;;;37.43;22.57;;;;;;;10.97;100.00;100946.87;5127822;55;1145302;-77
2023/04/16 13:17:10;;;;;;;77.33;40.10;;;;;;;10.92;100.00;100957.30;5100920;55;1145268;-80
2023/04/16 13:22:16;;;;;;;81.40;39.10;;;;;;;10.80;100.00;100953.37;5130814;55;1145362;-79
2023/04/16 13:27:22;;;;;;;81.37;42.53;;;;;;;10.72;100.00;100953.90;5133114;55;1145090;-77
2023/04/16 13:32:27;;;;;;;54.10;27.37;;;;;;;10.72;100.00;100963.63;5102740;55;1145061;-79
2023/04/16 13:37:34;;;;;;;38.57;24.00;;;;;;;10.73;100.00;100966.17;5120134;55;1145072;-80
2023/04/16 13:42:40;;;;;;;42.10;25.35;;;;;;;10.76;100.00;100967.28;5153078;55;1145076;-76
2023/04/16 13:47:45;;;;;;;45.30;24.80;;;;;;;10.74;100.00;100960.41;5094120;56;1145127;-76
2023/04/16 13:52:51;;;;;;;41.90;23.93;;;;;;;10.73;100.00;100967.97;5035158;56;1145351;-76
2023/04/16 13:57:57;;;;;;;35.93;23.43;;;;;;;10.80;100.00;100966.13;5060713;56;1145214;-76
2023/04/16 14:03:04;;;;;;;41.40;22.33;;;;;;;10.86;100.00;100964.81;5114682;56;1145305;-78
2023/04/16 14:08:11;;;;;;;35.33;20.23;;;;;;;10.87;100.00;100964.71;5116195;56;1145153;-75
2023/04/16 14:13:17;;;;;;;35.57;20.60;;;;;;;10.96;100.00;100968.99;5019320;56;1145376;-81
2023/04/16 14:18:23;;;;;;;37.48;20.15;;;;;;;10.92;100.00;100965.23;5051585;56;1145066;-79
2023/04/16 14:23:28;;;;;;;30.60;18.67;;;;;;;10.92;100.00;100968.36;5020851;56;1145325;-75
2023/04/16 14:28:34;;;;;;;29.87;19.73;;;;;;;10.87;100.00;100983.23;4979909;56;1145288;-73
2023/04/16 14:33:40;;;;;;;34.60;19.97;;;;;;;10.76;100.00;100976.55;5044799;57;1145249;-77
2023/04/16 14:38:47;;;;;;;37.63;21.68;;;;;;;10.74;100.00;100986.86;4992831;56;1145192;-76
2023/04/16 14:43:53;;;;;;;31.03;19.97;;;;;;;10.76;100.00;100987.61;5018479;57;1145228;-79
2023/04/16 14:48:58;;;;;;;32.38;20.08;;;;;;;10.77;100.00;100993.27;5002108;56;1145216;-70
2023/04/16 14:54:04;;;;;;;34.20;18.93;;;;;;;10.70;100.00;100992.84;5025274;56;1145235;-77
2023/04/16 14:59:10;;;;;;;26.97;16.40;;;;;;;10.69;100.00;100995.63;5061323;56;1145154;-70
2023/04/16 15:04:16;;;;;;;33.07;20.80;;;;;;;10.70;100.00;100990.67;5061222;56;1145120;-72
2023/04/16 15:09:21;;;;;;;45.37;21.17;;;;;;;10.68;100.00;100996.58;5081309;56;1145281;-71
2023/04/16 15:14:27;;;;;;;44.20;22.17;;;;;;;10.68;100.00;100995.25;5026611;56;1145369;-71
2023/04/16 15:19:32;;;;;;;41.50;23.07;;;;;;;10.62;100.00;101000.96;5003684;57;1145119;-71
2023/04/16 15:24:38;;;;;;;45.78;23.45;;;;;;;10.58;100.00;101002.97;4998239;57;1145175;-75
2023/04/16 15:29:45;;;;;;;40.70;23.32;;;;;;;10.56;100.00;101008.84;5035941;56;1145349;-70
2023/04/16 15:34:51;;;;;;;40.93;23.30;;;;;;;10.56;100.00;101014.97;5061318;57;1145119;-71
2023/04/16 15:39:56;;;;;;;46.63;25.07;;;;;;;10.56;100.00;101018.09;5030119;56;1145089;-71
2023/04/16 15:45:02;;;;;;;38.60;22.80;;;;;;;10.51;100.00;101019.76;5033400;56;1145142;-73
2023/04/16 15:50:08;;;;;;;72.23;36.40;;;;;;;10.44;100.00;101026.41;5061232;56;1145240;-71
2023/04/16 15:55:15;;;;;;;40.70;23.43;;;;;;;10.42;100.00;101034.91;5061096;56;1145289;-74
2023/04/16 16:00:21;;;;;;;42.90;23.30;;;;;;;10.38;100.00;101036.58;5081359;56;1144995;-76
2023/04/16 16:05:27;;;;;;;51.03;27.97;;;;;;;10.35;100.00;101040.27;5061222;56;1145250;-71
2023/04/16 16:10:33;;;;;;;37.43;21.03;;;;;;;10.39;100.00;101039.09;5061491;56;1145031;-68
2023/04/16 16:15:40;;;;;;;37.73;20.62;;;;;;;10.38;100.00;101044.03;5081245;56;1145583;-74
2023/04/16 16:20:46;;;;;;;40.65;20.20;;;;;;;10.32;100.00;101044.44;5061730;56;1145131;-74
2023/04/16 16:25:52;;;;;;;40.07;18.53;;;;;;;10.26;100.00;101039.55;5061254;56;1145074;-72
2023/04/16 16:31:00;;;;;;;34.03;17.97;;;;;;;10.20;100.00;101054.53;5011793;56;1145122;-71
2023/04/16 16:36:05;;;;;;;24.33;14.17;;;;;;;10.23;100.00;101055.66;5072830;56;1145231;-73
2023/04/16 16:41:10;;;;;;;30.07;16.40;;;;;;;10.26;100.00;101058.53;4977955;57;1145084;-72
2023/04/16 16:46:16;;;;;;;26.57;15.73;;;;;;;10.17;100.00;101064.80;4920557;57;1145515;-74
2023/04/16 16:51:22;;;;;;;29.00;17.73;;;;;;;10.14;100.00;101068.96;4952440;58;1145205;-68
2023/04/16 16:56:27;;;;;;;29.93;15.20;;;;;;;10.15;100.00;101069.81;4899123;58;1145271;-70
2023/04/16 17:01:34;;;;;;;35.63;18.55;;;;;;;10.12;100.00;101069.53;4992602;57;1145099;-71
2023/04/16 17:06:39;;;;;;;30.57;17.82;;;;;;;10.08;100.00;101072.00;4918659;58;1145508;-71
2023/04/16 17:11:45;;;;;;;24.75;14.38;;;;;;;10.11;100.00;101077.09;4979093;57;1145179;-73
2023/04/16 17:16:51;;;;;;;28.07;15.00;;;;;;;10.08;100.00;101086.54;4898923;58;1145098;-69
2023/04/16 17:21:56;;;;;;;22.40;14.03;;;;;;;10.02;100.00;101095.36;4978978;58;1145293;-71
2023/04/16 17:27:03;;;;;;;20.37;13.10;;;;;;;10.00;100.00;101100.75;4929860;58;1145322;-70
2023/04/16 17:32:09;;;;;;;52.03;29.07;;;;;;;9.98;100.00;101105.28;5061355;56;1145192;-72
2023/04/16 17:37:14;;;;;;;43.00;21.07;;;;;;;10.04;100.00;101114.14;5059284;56;1143049;-74
2023/04/16 17:42:20;;;;;;;30.80;16.07;;;;;;;10.04;100.00;101108.01;5081514;56;1145221;-70
2023/04/16 17:47:26;;;;;;;40.37;19.40;;;;;;;10.02;100.00;101108.58;4987442;56;1145043;-70
2023/04/16 17:52:31;;;;;;;29.00;15.57;;;;;;;9.94;100.00;101117.47;4899089;58;1145084;-73
2023/04/16 17:57:37;;;;;;;27.87;14.53;;;;;;;9.88;100.00;101109.02;4994470;57;1143218;-69
2023/04/16 18:02:42;;;;;;;29.48;14.15;;;;;;;9.84;100.00;101118.08;4966114;57;1143117;-70
2023/04/16 18:07:48;;;;;;;26.57;12.53;;;;;;;9.80;100.00;101125.81;4974224;58;1143147;-68
2023/04/16 18:12:54;;;;;;;23.83;13.80;;;;;;;9.79;100.00;101126.77;4979384;57;1143232;-72
2023/04/16 18:17:59;;;;;;;34.33;15.47;;;;;;;9.76;100.00;101134.91;4998693;57;1143053;-75
2023/04/16 18:23:05;;;;;;;26.20;15.20;;;;;;;9.77;100.00;101143.69;4900316;57;1142983;-71
2023/04/16 18:28:11;;;;;;;27.23;14.27;;;;;;;9.73;100.00;101148.31;4922044;57;1143175;-70
2023/04/16 18:33:17;;;;;;;29.35;14.18;;;;;;;9.73;100.00;101148.31;4985183;56;1143272;-70
2023/04/16 18:38:22;;;;;;;24.45;12.60;;;;;;;9.71;100.00;101162.08;4978578;56;1143237;-71
2023/04/16 18:43:28;;;;;;;21.67;12.23;;;;;;;9.63;100.00;101165.66;5047947;56;1143023;-72
2023/04/16 18:48:34;;;;;;;40.93;20.40;;;;;;;9.63;100.00;101174.91;5076248;56;1143058;-70
2023/04/16 18:53:41;;;;;;;27.87;14.27;;;;;;;9.66;100.00;101175.19;5058288;55;1143019;-71
2023/04/16 18:58:46;;;;;;;23.05;14.05;;;;;;;9.66;100.00;101180.48;4952165;57;1143327;-73
2023/04/16 19:03:52;;;;;;;19.37;11.60;;;;;;;9.62;100.00;101181.64;4994207;57;1143051;-69
2023/04/16 19:08:58;;;;;;;22.00;12.57;;;;;;;9.61;100.00;101184.75;4962524;57;1143114;-72
2023/04/16 19:14:04;;;;;;;24.70;12.53;;;;;;;9.61;100.00;101188.71;4973473;57;1143275;-79
2023/04/16 19:19:10;;;;;;;19.63;13.13;;;;;;;9.60;100.00;101184.84;4954448;58;1143018;-79
2023/04/16 19:24:15;;;;;;;28.70;13.87;;;;;;;9.60;100.00;101192.30;4986549;57;1143103;-78
2023/04/16 19:29:21;;;;;;;17.17;10.97;;;;;;;9.58;100.00;101201.25;5030843;56;1143226;-77
2023/04/16 19:34:26;;;;;;;17.67;11.10;;;;;;;9.49;100.00;101200.02;5134047;55;1143078;-68
2023/04/16 19:39:32;;;;;;;16.03;9.13;;;;;;;9.46;100.00;101198.91;5157823;55;1143172;-68
2023/04/16 19:44:38;;;;;;;19.03;11.00;;;;;;;9.45;100.00;101204.66;5154802;55;1141117;-70
2023/04/16 19:49:45;;;;;;;18.35;9.95;;;;;;;9.41;100.00;101204.47;4993060;57;1143093;-79
2023/04/16 19:54:56;;;;;;;21.57;11.45;;;;;;;9.38;100.00;101210.40;5121971;55;1140888;-80
2023/04/16 20:00:02;;;;;;;19.65;9.93;;;;;;;9.34;100.00;101207.56;5104396;55;1143247;-76
2023/04/16 20:05:09;;;;;;;13.60;8.23;;;;;;;9.35;100.00;101211.43;5192312;55;1140980;-79
2023/04/16 20:10:15;;;;;;;14.60;7.40;;;;;;;9.39;100.00;101218.23;5182362;55;1141122;-76
2023/04/16 20:15:20;;;;;;;18.53;9.00;;;;;;;9.38;100.00;101215.20;5032284;56;1141153;-75
2023/04/16 20:20:26;;;;;;;12.87;8.17;;;;;;;9.37;100.00;101217.47;5134219;56;1140998;-77
2023/04/16 20:25:32;;;;;;;14.80;9.57;;;;;;;9.33;100.00;101215.95;5067794;56;1140975;-76
2023/04/16 20:30:40;;;;;;;13.60;8.37;;;;;;;9.27;100.00;101220.78;4980608;57;1140927;-79
2023/04/16 20:35:46;;;;;;;15.83;8.40;;;;;;;9.21;100.00;101215.39;4905905;57;1141122;-80
2023/04/16 20:41:04;;;;;;;14.40;8.70;;;;;;;9.18;100.00;101218.20;4899935;57;1140973;-79
2023/04/16 20:46:01;;;;;;;13.00;7.70;;;;;;;9.15;100.00;101215.78;4898563;57;1141007;-76
2023/04/16 20:51:08;;;;;;;15.18;9.65;;;;;;;9.16;100.00;101213.52;4932222;57;1141182;-79
2023/04/16 20:56:16;;;;;;;18.67;10.53;;;;;;;9.13;100.00;101210.59;4918739;58;1141020;-81
2023/04/16 21:01:22;;;;;;;14.60;8.80;;;;;;;9.10;100.00;101213.41;4979244;58;1143318;-75
2023/04/16 21:06:31;;;;;;;17.07;8.70;;;;;;;9.08;100.00;101215.28;4900390;58;1140986;-81
2023/04/16 21:11:35;;;;;;;16.40;8.37;;;;;;;9.05;100.00;101210.19;4918735;58;1141199;-81
2023/04/16 21:16:40;;;;;;;22.00;9.63;;;;;;;9.01;100.00;101218.41;4900584;56;1141007;-78
2023/04/16 21:21:46;;;;;;;19.82;7.87;;;;;;;9.03;100.00;101220.45;4936957;57;1140990;-77
2023/04/16 21:26:51;;;;;;;17.45;8.43;;;;;;;8.98;100.00;101219.43;4932092;58;1141049;-79
2023/04/16 21:31:57;;;;;;;12.37;8.10;;;;;;;9.05;100.00;101227.81;5096765;55;1140854;-79
2023/04/16 21:37:02;;;;;;;13.93;7.58;;;;;;;9.01;100.00;101228.45;5096771;55;1141265;-79
2023/04/16 21:42:08;;;;;;;10.77;7.30;;;;;;;8.99;100.00;101237.43;5116760;56;1141112;-78
2023/04/16 21:47:14;;;;;;;11.20;5.97;;;;;;;8.94;100.00;101232.88;5097007;55;1141168;-75
2023/04/16 21:52:19;;;;;;;13.83;7.17;;;;;;;8.90;100.00;101235.31;5096526;56;1141205;-76
2023/04/16 21:57:25;;;;;;;16.40;8.20;;;;;;;8.88;100.00;101240.68;5116650;56;1140791;-77
2023/04/16 22:02:32;;;;;;;13.27;7.77;;;;;;;8.88;100.00;101234.55;5110016;55;1140955;-78
2023/04/16 22:07:40;;;;;;;17.02;8.60;;;;;;;8.81;100.00;101236.72;5141885;55;1140842;-80
2023/04/16 22:12:45;;;;;;;16.10;9.55;;;;;;;8.77;100.00;101247.06;5101928;55;1140859;-77
2023/04/16 22:17:51;;;;;;;18.92;9.85;;;;;;;8.76;100.00;101243.58;5178205;55;1140896;-77
2023/04/16 22:22:57;;;;;;;22.02;10.00;;;;;;;8.73;100.00;101253.45;5183002;55;1140918;-79
2023/04/16 22:28:03;;;;;;;17.07;9.53;;;;;;;8.74;100.00;101252.52;5118546;55;1143210;-81
2023/04/16 22:33:08;;;;;;;17.17;8.57;;;;;;;8.74;100.00;101256.47;5116125;56;1141053;-77
2023/04/16 22:38:15;;;;;;;16.57;8.80;;;;;;;8.72;100.00;101259.19;5096459;56;1140939;-79